Startpagina
METAR-TAF:

METAR-TAF

Vliegvelden :

Luchthaven Ankara Esenboga

Ankara Esenboğa, Turkije

breedte: 40-07N, lengte: 032-59E, hoogte: 953 m

Actueel weer

Dit bericht is 18 minuten geleden gemaakt, om 19:50 UTC
Wind 5 kt uit het noorden
Temperatuur 2°C
Vochtigheid 64%
Druk 1022 hPa
Zicht 10 km of meer
Weinig wolken op 4000 ft

METAR: LTAC 221950Z 36005KT 9999 FEW040 02/M04 Q1022 NOSIG RMK RWY21L 01003KT RWY03L 36004KT RWY21R 01003KT

Tijdstip: 23:08 (20:08 UTC)

Verwachting

Dit bericht is 3 uur en het 28 minuten geleden gemaakt, om 16:40 UTC
Verwachting geldig van 22 om 18 UTC tot 23 om 18 UTC
Wind 2 kt uit variabele richting
Zicht 10 km of meer
Verspreide wolken op 4000 ft
Wijzigt naar
van 22 om 18 UTC tot 22 om 21 UTC
Zicht 10 km of meer
geen wolken onder 1500 m en geen cumulonimbus
Wijzigt naar
van 23 om 04 UTC tot 23 om 06 UTC
Verspreide wolken op 4000 ft

TAF: LTAC 221640Z 2218/2318 VRB02KT 9999 SCT040 BECMG 2218/2221 CAVOK BECMG 2304/2306 SCT040

Waarnemingen en weersverwachtingen van meer dan 4000 vliegvelden (METAR en TAF).

De beschikbare stations zijn de gele en rode punten op de kaart.

Ga met uw muis naar het station om de naam te zien.

Klik dan om waarnemingen en weersverwachtingen te zien.

kaart wijzigen: klik op de groene knoppen met een zwart kruis om in te zoomen, op de groene knop met een streepje om uit te zoomen of op de groene pijlen voor aangrenzende kaarten.


METAR-TAF: